Terminal Aerodrome Forecast
Issued by NWS

Home | Current Version | Previous Version | Graphics & Text | Print | Product List | Glossary On
Versions: 1 2 3 4 5 6 7 8 9 10 11 12 13 14 15 16
617
FTUS41 KCLE 180540
TAFFDY
TAF
KFDY 180540Z 1806/1906 29004KT P6SM SKC
     FM181300 13004KT P6SM SCT060 BKN180
     FM181800 11007KT P6SM BKN060
     FM182200 09009KT P6SM -RA OVC025
     FM190000 07011KT 4SM -RA OVC007
     FM190500 34010KT 3SM -RASN OVC003=

USA.gov is the U.S. government's official web portal to all federal, state and local government web resources and services.